Time;durP1;ratioP1;P1;durP2;ratioP2;P2;SDS_P1;SDS_P2;PMS_P1;PMS_P2;Temp;Humidity;BMP_temperature;BMP_pressure;BME280_temperature;BME280_humidity;BME280_pressure;Samples;Min_cycle;Max_cycle;Signal;HPM_P1;HPM_P2
2021/01/17 00:00:14;;;;;;;5.40;2.55;;;;;;;27.55;25.60;96568.00;5032214;28;20126;-33
2021/01/17 00:02:40;;;;;;;5.97;2.53;;;;;;;27.53;25.75;96556.69;5009140;28;20053;-33
2021/01/17 00:05:09;;;;;;;4.18;2.60;;;;;;;27.53;25.60;96549.66;5027574;28;20060;-32
2021/01/17 00:07:35;;;;;;;4.90;2.53;;;;;;;27.52;25.75;96542.72;5018153;28;20561;-31
2021/01/17 00:10:00;;;;;;;5.78;2.58;;;;;;;27.51;25.76;96535.72;5025066;28;20030;-33
2021/01/17 00:12:26;;;;;;;6.38;2.88;;;;;;;27.51;25.70;96529.66;5025510;28;20038;-32
2021/01/17 00:14:52;;;;;;;7.70;2.70;;;;;;;27.52;25.66;96531.31;5029433;28;20574;-34
2021/01/17 00:17:17;;;;;;;6.10;2.60;;;;;;;27.51;25.67;96514.69;5017676;28;20037;-34
2021/01/17 00:19:43;;;;;;;3.65;2.10;;;;;;;27.52;25.70;96518.16;5036093;28;20040;-32
2021/01/17 00:22:08;;;;;;;4.85;2.30;;;;;;;27.53;25.81;96517.22;5032250;28;20054;-32
2021/01/17 00:24:34;;;;;;;5.25;2.30;;;;;;;27.53;25.63;96517.22;5025901;28;20034;-32
2021/01/17 00:26:59;;;;;;;4.57;2.38;;;;;;;27.52;25.66;96510.28;5023155;28;20046;-33
2021/01/17 00:29:25;;;;;;;4.13;2.30;;;;;;;27.50;25.67;96507.75;5029705;28;20728;-33
2021/01/17 00:31:51;;;;;;;5.18;2.60;;;;;;;27.51;25.69;96508.59;5028641;28;20142;-32
2021/01/17 00:34:17;;;;;;;3.40;2.33;;;;;;;27.51;25.80;96505.97;5042174;28;20382;-33
2021/01/17 00:36:42;;;;;;;5.18;2.38;;;;;;;27.50;25.68;96497.22;5030234;28;20060;-29
2021/01/17 00:39:08;;;;;;;4.35;2.33;;;;;;;27.49;25.60;96494.66;5018070;28;20048;-33
2021/01/17 00:41:34;;;;;;;3.33;2.10;;;;;;;27.49;25.68;96497.31;5030913;28;20108;-32
2021/01/17 00:43:59;;;;;;;3.33;2.38;;;;;;;27.48;25.72;96493.84;5035049;28;20561;-31
2021/01/17 00:46:25;;;;;;;4.20;2.30;;;;;;;27.49;25.71;96497.31;5034694;28;20037;-32
2021/01/17 00:48:51;;;;;;;3.90;2.25;;;;;;;27.48;25.90;96487.72;5013501;28;20033;-32
2021/01/17 00:51:16;;;;;;;4.57;2.10;;;;;;;27.48;25.73;96487.72;5020983;28;20036;-32
2021/01/17 00:53:43;;;;;;;4.78;1.90;;;;;;;27.47;25.68;96486.06;5023798;28;20106;-33
2021/01/17 00:56:08;;;;;;;4.13;1.88;;;;;;;27.46;25.69;96485.19;5021328;28;20052;-30
2021/01/17 00:58:33;;;;;;;3.45;2.00;;;;;;;27.47;25.55;96480.78;5022059;28;22471;-30
2021/01/17 01:00:59;;;;;;;3.85;2.15;;;;;;;27.46;25.92;96479.09;5021727;28;20033;-32
2021/01/17 01:03:24;;;;;;;4.03;2.38;;;;;;;27.44;25.91;96475.72;5028618;28;20041;-33
2021/01/17 01:05:50;;;;;;;3.58;2.20;;;;;;;27.44;25.66;96473.09;5015272;28;20053;-32
2021/01/17 01:08:16;;;;;;;2.95;1.90;;;;;;;27.44;25.74;96475.72;5019072;28;20041;-33
2021/01/17 01:10:42;;;;;;;4.18;2.30;;;;;;;27.43;25.75;96472.25;5034200;28;20102;-33
2021/01/17 01:13:08;;;;;;;4.18;2.20;;;;;;;27.43;25.65;96460.88;5030003;28;20043;-35
2021/01/17 01:15:33;;;;;;;5.05;2.30;;;;;;;27.41;25.88;96460.97;5024119;28;20199;-32
2021/01/17 01:17:59;;;;;;;3.72;1.88;;;;;;;27.41;25.70;96465.41;5030187;28;20044;-32
2021/01/17 01:20:25;;;;;;;3.13;1.73;;;;;;;27.41;25.79;96460.97;5028637;28;20037;-30
2021/01/17 01:22:51;;;;;;;4.13;2.30;;;;;;;27.39;25.70;96452.34;5035133;28;20517;-33
2021/01/17 01:25:16;;;;;;;2.60;1.88;;;;;;;27.39;25.73;96450.53;5036031;28;20037;-34
2021/01/17 01:27:48;;;;;;;3.30;1.95;;;;;;;27.38;25.91;96451.50;5025457;28;20445;-33
2021/01/17 01:30:15;;;;;;;2.63;1.80;;;;;;;27.38;25.84;96446.22;5035805;28;20508;-32
2021/01/17 01:32:40;;;;;;;3.08;2.03;;;;;;;27.38;25.85;96448.84;5024404;28;20040;-33
2021/01/17 01:35:07;;;;;;;3.60;1.88;;;;;;;27.37;25.80;96443.69;5033398;28;20060;-38
2021/01/17 01:37:35;;;;;;;2.90;1.80;;;;;;;27.37;25.70;96441.91;5019502;28;20041;-31
2021/01/17 01:40:04;;;;;;;4.03;1.80;;;;;;;27.36;25.75;96429.72;5027070;28;20068;-33
2021/01/17 01:42:29;;;;;;;3.55;1.90;;;;;;;27.36;25.81;96432.34;5026331;28;20128;-30
2021/01/17 01:44:55;;;;;;;3.78;1.83;;;;;;;27.37;25.83;96427.91;5028176;28;20041;-32
2021/01/17 01:47:25;;;;;;;2.95;1.83;;;;;;;27.35;26.07;96428.00;5031583;28;20498;-33
2021/01/17 01:49:52;;;;;;;5.32;1.90;;;;;;;27.35;25.82;96422.75;5034149;28;20043;-32
2021/01/17 01:52:17;;;;;;;3.25;1.73;;;;;;;27.36;25.94;96432.34;5033116;28;20044;-31
2021/01/17 01:54:42;;;;;;;3.28;1.63;;;;;;;27.35;25.71;96425.38;5028971;28;20041;-32
2021/01/17 01:57:08;;;;;;;3.42;1.83;;;;;;;27.35;25.72;96420.09;5008924;28;22563;-30
2021/01/17 01:59:34;;;;;;;2.55;1.70;;;;;;;27.34;25.85;96413.16;5014263;28;20140;-34
2021/01/17 02:01:59;;;;;;;3.53;1.83;;;;;;;27.33;25.74;96405.38;5012642;28;21961;-35
2021/01/17 02:04:25;;;;;;;3.10;2.03;;;;;;;27.33;25.92;96414.13;5001718;28;20107;-33
2021/01/17 02:07:35;;;;;;;3.17;1.75;;;;;;;27.34;25.83;96412.34;5033356;28;20101;-33
2021/01/17 02:10:00;;;;;;;2.60;1.85;;;;;;;27.33;25.98;96416.75;5027462;28;20040;-31
2021/01/17 02:12:30;;;;;;;2.08;1.45;;;;;;;27.34;25.80;96409.72;5025554;28;20033;-31
2021/01/17 02:15:18;;;;;;;3.22;1.95;;;;;;;27.33;25.81;96406.22;5030347;28;20122;-34
2021/01/17 02:17:44;;;;;;;2.67;1.60;;;;;;;27.31;25.92;96405.47;5022474;28;20083;-32
2021/01/17 02:20:27;;;;;;;2.30;1.60;;;;;;;27.33;25.71;96406.22;5022265;28;20417;-32
2021/01/17 02:23:02;;;;;;;2.05;1.50;;;;;;;27.33;25.76;96405.38;5026834;28;20502;-33
2021/01/17 02:25:34;;;;;;;2.25;1.50;;;;;;;27.32;25.91;96407.19;5027400;28;20033;-32
2021/01/17 02:28:02;;;;;;;3.60;1.70;;;;;;;27.30;25.82;96400.34;5019749;28;20044;-32
2021/01/17 02:30:29;;;;;;;2.58;1.50;;;;;;;27.29;25.78;96399.47;5015325;28;20045;-31
2021/01/17 02:32:57;;;;;;;3.25;1.50;;;;;;;27.29;25.87;96399.47;5022566;28;20056;-31
2021/01/17 02:35:23;;;;;;;2.75;1.70;;;;;;;27.29;25.93;96394.22;5036263;28;20021;-30
2021/01/17 02:38:07;;;;;;;2.72;1.80;;;;;;;27.28;25.90;96392.53;5030953;28;20670;-32
2021/01/17 02:41:10;;;;;;;2.45;1.52;;;;;;;27.28;25.79;96395.16;5024786;28;20041;-31
2021/01/17 02:43:35;;;;;;;2.25;1.35;;;;;;;27.27;25.95;96398.75;5027128;28;20060;-32
2021/01/17 02:46:02;;;;;;;1.65;1.45;;;;;;;27.27;25.90;96401.38;5020078;28;20049;-33
2021/01/17 02:48:27;;;;;;;1.52;1.30;;;;;;;27.26;25.84;96402.31;5032855;28;20124;-33
2021/01/17 02:50:53;;;;;;;2.53;1.58;;;;;;;27.25;25.78;96398.84;5036506;28;20044;-32
2021/01/17 02:53:25;;;;;;;1.75;1.27;;;;;;;27.27;25.80;96406.63;5039312;28;20041;-32
2021/01/17 02:55:52;;;;;;;2.90;1.55;;;;;;;27.25;25.91;96398.84;5030806;28;20037;-31
2021/01/17 02:58:18;;;;;;;1.80;1.30;;;;;;;27.27;25.91;96401.38;5022977;28;20045;-30
2021/01/17 03:00:43;;;;;;;2.13;1.48;;;;;;;27.26;25.85;96410.19;5015780;28;20041;-31
2021/01/17 03:03:09;;;;;;;3.13;1.48;;;;;;;27.26;25.81;96399.66;5007657;28;20473;-34
2021/01/17 03:05:35;;;;;;;2.83;1.48;;;;;;;27.25;25.89;96403.25;5028567;28;20037;-34
2021/01/17 03:08:00;;;;;;;1.80;1.40;;;;;;;27.24;25.92;96397.13;5032550;28;20770;-32
2021/01/17 03:10:26;;;;;;;2.13;1.60;;;;;;;27.25;25.85;96400.63;5037106;28;20118;-32
2021/01/17 03:12:51;;;;;;;2.75;1.40;;;;;;;27.26;25.86;96404.94;5022564;28;20966;-34
2021/01/17 03:15:17;;;;;;;1.33;1.23;;;;;;;27.26;25.94;96400.53;5021021;28;20442;-34
2021/01/17 03:17:43;;;;;;;2.17;1.40;;;;;;;27.26;25.86;96400.53;5027447;28;20116;-31
2021/01/17 03:20:09;;;;;;;2.35;1.45;;;;;;;27.25;25.69;96388.31;5031576;28;20120;-32
2021/01/17 03:22:34;;;;;;;2.72;1.30;;;;;;;27.26;25.86;96379.47;5022046;28;20025;-34
2021/01/17 03:25:00;;;;;;;2.00;1.10;;;;;;;27.26;25.81;96376.00;5022222;28;20093;-33
2021/01/17 03:27:25;;;;;;;2.47;1.58;;;;;;;27.25;25.94;96375.16;5028445;28;20049;-32
2021/01/17 03:29:52;;;;;;;2.50;1.30;;;;;;;27.24;25.82;96370.81;5038373;28;20048;-32
2021/01/17 03:32:18;;;;;;;2.20;1.70;;;;;;;27.25;25.86;96371.69;5030169;28;20052;-32
2021/01/17 03:34:48;;;;;;;1.85;1.20;;;;;;;27.24;25.72;96370.81;5022369;28;20069;-33
2021/01/17 03:37:17;;;;;;;1.63;1.30;;;;;;;27.25;25.80;96367.28;5034231;28;20029;-33
2021/01/17 03:39:42;;;;;;;2.67;1.30;;;;;;;27.25;25.89;96369.91;5030789;28;20129;-32
2021/01/17 03:42:08;;;;;;;1.85;1.30;;;;;;;27.25;25.75;96371.69;5035954;28;20037;-33
2021/01/17 03:44:34;;;;;;;1.40;1.15;;;;;;;27.24;25.86;96367.38;5036383;28;20053;-33
2021/01/17 03:46:59;;;;;;;2.17;1.45;;;;;;;27.25;25.88;96361.16;5032647;28;20037;-33
2021/01/17 03:49:25;;;;;;;1.65;1.25;;;;;;;27.24;25.80;96367.38;5040731;28;20033;-33
2021/01/17 03:51:51;;;;;;;2.83;1.23;;;;;;;27.24;25.91;96372.63;5028474;28;21952;-32
2021/01/17 03:54:17;;;;;;;1.60;1.15;;;;;;;27.24;25.90;96362.94;5026904;28;20124;-33
2021/01/17 03:56:43;;;;;;;1.27;0.95;;;;;;;27.24;25.67;96370.00;5037936;28;20055;-33
2021/01/17 03:59:08;;;;;;;2.03;1.17;;;;;;;27.24;25.76;96368.19;5032767;28;20128;-33
2021/01/17 04:01:35;;;;;;;1.88;1.17;;;;;;;27.17;25.90;96369.56;5029485;28;20111;-34
2021/01/17 04:04:00;;;;;;;1.60;1.17;;;;;;;27.07;26.04;96371.09;5028249;28;20045;-34
2021/01/17 04:06:26;;;;;;;1.42;1.08;;;;;;;26.93;26.18;96371.97;5034243;28;20053;-34
2021/01/17 04:08:52;;;;;;;1.67;1.17;;;;;;;26.88;26.38;96370.47;5030617;28;20525;-33
2021/01/17 04:11:18;;;;;;;1.13;1.02;;;;;;;26.84;26.41;96365.50;5036263;28;20529;-32
2021/01/17 04:13:43;;;;;;;1.20;1.10;;;;;;;26.82;26.37;96370.88;5023470;28;20046;-30
2021/01/17 04:16:09;;;;;;;4.15;2.20;;;;;;;26.83;26.26;96376.97;5035546;28;20079;-32
2021/01/17 04:18:35;;;;;;;2.70;1.50;;;;;;;26.84;26.15;96378.66;5018468;28;21323;-32
2021/01/17 04:21:01;;;;;;;1.55;1.20;;;;;;;26.86;26.18;96374.16;5026710;28;20498;-33
2021/01/17 04:23:27;;;;;;;4.28;1.40;;;;;;;26.88;26.00;96375.75;5022738;28;20037;-34
2021/01/17 04:25:52;;;;;;;1.00;0.95;;;;;;;26.95;26.07;96380.63;5020966;28;20493;-30
2021/01/17 04:28:18;;;;;;;1.42;1.10;;;;;;;26.97;25.93;96373.50;5024285;28;20073;-31
2021/01/17 04:30:45;;;;;;;1.60;1.17;;;;;;;27.02;26.04;96376.66;5025326;28;20502;-31
2021/01/17 04:33:11;;;;;;;1.40;1.10;;;;;;;27.05;25.97;96373.84;5035094;28;20771;-32
2021/01/17 04:35:36;;;;;;;1.38;1.10;;;;;;;27.10;25.61;96374.38;5033016;28;20052;-31
2021/01/17 04:38:02;;;;;;;1.45;1.20;;;;;;;27.13;25.72;96371.56;5034274;28;20100;-31
2021/01/17 04:40:27;;;;;;;1.67;1.00;;;;;;;27.17;25.58;96373.97;5032290;28;20477;-31
2021/01/17 04:43:00;;;;;;;1.10;1.00;;;;;;;27.18;25.73;96371.25;5023867;28;20073;-32
2021/01/17 04:45:26;;;;;;;1.38;1.20;;;;;;;27.19;25.65;96377.34;5032124;28;20067;-34
2021/01/17 04:47:51;;;;;;;3.28;1.20;;;;;;;27.21;25.54;96376.31;5036163;28;20533;-32
2021/01/17 04:50:17;;;;;;;1.35;1.25;;;;;;;27.23;25.60;96381.47;5013095;28;20067;-31
2021/01/17 04:52:58;;;;;;;1.63;1.30;;;;;;;27.24;25.60;96391.88;5023489;28;20099;-31
2021/01/17 04:55:24;;;;;;;1.70;1.10;;;;;;;27.25;25.43;96387.47;5031136;28;20089;-29
2021/01/17 04:58:09;;;;;;;2.08;1.05;;;;;;;27.25;25.64;96392.72;5041467;28;20036;-33
2021/01/17 05:00:34;;;;;;;1.48;1.15;;;;;;;27.25;25.78;96392.72;5033388;28;20079;-32
2021/01/17 05:03:10;;;;;;;1.50;1.13;;;;;;;27.26;25.44;96394.41;5014688;28;20045;-31
2021/01/17 05:05:42;;;;;;;1.52;1.20;;;;;;;27.24;25.60;96391.03;5032307;28;20591;-32
2021/01/17 05:08:25;;;;;;;1.23;1.05;;;;;;;27.25;25.45;96387.47;5031570;28;20026;-32
2021/01/17 05:11:03;;;;;;;1.50;1.00;;;;;;;27.25;25.64;96398.84;5025057;28;20033;-32
2021/01/17 05:13:34;;;;;;;1.40;1.30;;;;;;;27.26;25.57;96402.31;5029489;28;20046;-33
2021/01/17 05:16:03;;;;;;;2.40;1.40;;;;;;;27.23;25.69;96403.34;5029702;28;20045;-33
2021/01/17 05:18:30;;;;;;;1.58;1.00;;;;;;;27.24;25.37;96405.03;5017895;28;20353;-32
2021/01/17 05:21:00;;;;;;;1.52;1.10;;;;;;;27.26;25.60;96399.66;5033836;28;20029;-31
2021/01/17 05:23:33;;;;;;;1.17;1.02;;;;;;;27.24;25.55;96398.94;5027512;28;20041;-32
2021/01/17 05:26:02;;;;;;;1.40;1.25;;;;;;;27.25;25.53;96403.25;5035618;28;20099;-32
2021/01/17 05:28:29;;;;;;;1.45;1.00;;;;;;;27.26;25.50;96399.66;5029843;28;20064;-32
2021/01/17 05:30:55;;;;;;;2.30;1.08;;;;;;;27.25;25.64;96408.50;5036626;28;20437;-32
2021/01/17 05:33:20;;;;;;;1.58;1.08;;;;;;;27.24;25.50;96399.75;5042311;28;20502;-32
2021/01/17 05:35:46;;;;;;;1.15;1.05;;;;;;;27.26;25.45;96404.94;5018644;28;20073;-32
2021/01/17 05:38:13;;;;;;;1.05;0.95;;;;;;;27.25;25.41;96405.88;5031433;28;20045;-30
2021/01/17 05:40:39;;;;;;;1.38;1.10;;;;;;;27.26;25.43;96410.19;5024442;28;20037;-32
2021/01/17 05:43:08;;;;;;;1.02;0.82;;;;;;;27.25;25.49;96408.50;5014778;28;20498;-33
2021/01/17 05:45:33;;;;;;;1.20;1.10;;;;;;;27.25;25.59;96411.13;5030808;28;20068;-31
2021/01/17 05:48:03;;;;;;;1.02;0.93;;;;;;;27.24;25.62;96414.72;5043117;28;20033;-33
2021/01/17 05:50:30;;;;;;;1.30;1.10;;;;;;;27.25;25.52;96414.63;5032818;28;20472;-32
2021/01/17 05:52:56;;;;;;;1.30;1.17;;;;;;;27.25;25.63;96409.38;5031162;28;20074;-30
2021/01/17 05:55:43;;;;;;;2.15;1.10;;;;;;;27.26;25.51;96412.81;5026344;28;20308;-31
2021/01/17 05:58:28;;;;;;;1.40;1.10;;;;;;;27.25;25.47;96411.13;5024775;28;20041;-33
2021/01/17 06:00:55;;;;;;;1.40;1.00;;;;;;;27.24;25.62;96409.47;5024639;28;20387;-32
2021/01/17 06:03:22;;;;;;;1.20;1.05;;;;;;;27.25;25.71;96426.94;5029849;28;20045;-32
2021/01/17 06:05:48;;;;;;;1.70;1.05;;;;;;;27.25;25.69;96424.28;5038641;28;20041;-33
2021/01/17 06:08:18;;;;;;;1.00;0.60;;;;;;;27.24;25.58;96428.69;5038562;28;20060;-32
2021/01/17 06:10:45;;;;;;;1.27;0.95;;;;;;;27.25;25.60;96429.56;5020584;28;20502;-30
2021/01/17 06:13:10;;;;;;;1.42;1.00;;;;;;;27.22;25.61;96422.72;5022732;28;20953;-32
2021/01/17 06:15:36;;;;;;;2.25;1.13;;;;;;;27.23;25.70;96416.50;5027513;28;20044;-33
2021/01/17 06:18:02;;;;;;;1.15;0.90;;;;;;;27.24;25.70;96417.34;5021742;28;20041;-31
2021/01/17 06:20:28;;;;;;;2.70;1.10;;;;;;;27.25;25.70;96419.03;5008358;28;20047;-32
2021/01/17 06:22:58;;;;;;;1.15;1.05;;;;;;;27.25;25.56;96426.94;5025862;28;20048;-30
2021/01/17 06:25:27;;;;;;;1.45;1.25;;;;;;;27.24;25.75;96419.97;5027917;28;20124;-32
2021/01/17 06:28:05;;;;;;;1.42;1.05;;;;;;;27.24;25.76;96425.25;5037090;28;20029;-32
2021/01/17 06:30:30;;;;;;;1.90;1.10;;;;;;;27.22;25.70;96420.06;5038524;28;20041;-31
2021/01/17 06:32:56;;;;;;;2.15;0.80;;;;;;;27.22;25.81;96413.97;5010835;28;20052;-31
2021/01/17 06:35:29;;;;;;;1.17;1.08;;;;;;;27.22;25.80;96419.22;5033503;28;20040;-31
2021/01/17 06:37:55;;;;;;;1.10;1.00;;;;;;;27.22;25.68;96424.47;5034756;28;20099;-32
2021/01/17 06:40:21;;;;;;;1.00;0.90;;;;;;;27.20;25.78;96415.88;5024863;28;20429;-32
2021/01/17 06:42:54;;;;;;;1.25;1.10;;;;;;;27.20;25.90;96416.72;5011137;28;20052;-31
2021/01/17 06:45:19;;;;;;;2.05;1.10;;;;;;;27.22;25.82;96419.22;5031485;28;20037;-32
2021/01/17 06:47:54;;;;;;;0.75;0.70;;;;;;;27.21;25.71;96428.06;5029789;28;20072;-33
2021/01/17 06:50:22;;;;;;;1.15;0.98;;;;;;;27.21;25.86;96428.06;5027934;28;20033;-33
2021/01/17 06:52:54;;;;;;;1.92;0.90;;;;;;;27.22;25.80;96427.13;5010435;28;20095;-32
2021/01/17 06:55:20;;;;;;;0.88;0.82;;;;;;;27.21;25.69;96428.06;5019927;28;20444;-35
2021/01/17 06:57:45;;;;;;;1.35;1.13;;;;;;;27.20;25.81;96421.97;5015072;28;20550;-36
2021/01/17 07:00:17;;;;;;;3.95;1.17;;;;;;;27.22;25.79;96424.47;5013084;28;20426;-33
2021/01/17 07:02:55;;;;;;;1.45;1.08;;;;;;;27.22;25.82;96424.47;5017316;28;20057;-35
2021/01/17 07:05:32;;;;;;;1.05;0.98;;;;;;;27.22;25.78;96435.00;5021778;28;20037;-34
2021/01/17 07:08:37;;;;;;;1.13;1.02;;;;;;;27.21;25.75;96428.91;5034575;28;20041;-33
2021/01/17 07:11:54;;;;;;;1.50;1.20;;;;;;;27.19;25.77;96446.56;5026508;28;20063;-35
2021/01/17 07:14:19;;;;;;;2.65;1.75;;;;;;;27.18;25.77;96442.25;5011170;28;20087;-36
2021/01/17 07:16:46;;;;;;;3.13;2.20;;;;;;;27.20;25.30;96447.44;5009307;28;20565;-33
2021/01/17 07:19:12;;;;;;;2.20;1.58;;;;;;;27.17;25.54;96445.00;5020897;28;20509;-34
2021/01/17 07:21:39;;;;;;;2.45;1.20;;;;;;;27.19;25.70;96451.00;5030312;28;20111;-35
2021/01/17 07:24:06;;;;;;;2.92;1.33;;;;;;;27.17;25.72;96445.00;5017762;28;20055;-34
2021/01/17 07:26:35;;;;;;;1.60;1.30;;;;;;;27.17;25.79;96445.00;5030524;28;20069;-33
2021/01/17 07:29:01;;;;;;;1.92;1.30;;;;;;;27.17;25.90;96453.72;5031229;28;20040;-31
2021/01/17 07:31:27;;;;;;;1.38;1.23;;;;;;;27.16;25.63;96456.47;5020904;28;20041;-31
2021/01/17 07:33:52;;;;;;;1.25;1.10;;;;;;;27.16;25.85;96456.47;5028310;28;20032;-33
2021/01/17 07:36:18;;;;;;;1.42;1.33;;;;;;;27.16;25.89;96461.72;5011865;28;20053;-35
2021/01/17 07:38:46;;;;;;;1.50;1.40;;;;;;;27.17;25.91;96455.50;5036895;28;20029;-33
2021/01/17 07:41:13;;;;;;;1.70;1.50;;;;;;;27.18;25.82;96457.19;5004977;28;20107;-33
2021/01/17 07:43:43;;;;;;;13.07;2.10;;;;;;;27.18;25.85;96459.81;5026884;28;20538;-33
2021/01/17 07:46:09;;;;;;;12.63;1.90;;;;;;;27.19;25.71;96462.34;5031686;28;20159;-31
2021/01/17 07:48:35;;;;;;;4.20;1.85;;;;;;;27.18;25.49;96471.19;5030634;28;20076;-33
2021/01/17 07:51:01;;;;;;;2.92;2.08;;;;;;;27.19;25.51;96466.78;5023316;28;20073;-32
2021/01/17 07:53:36;;;;;;;5.72;2.10;;;;;;;27.19;25.50;96472.06;5030180;28;20045;-30
2021/01/17 07:56:29;;;;;;;8.88;3.22;;;;;;;27.16;25.11;96477.50;5021917;28;20116;-37
2021/01/17 07:58:59;;;;;;;2.13;1.80;;;;;;;27.16;25.41;96474.88;5020209;28;20067;-35
2021/01/17 08:01:30;;;;;;;4.18;1.55;;;;;;;27.16;25.28;96477.50;5016718;28;20460;-33
2021/01/17 08:04:16;;;;;;;11.77;4.97;;;;;;;27.13;23.58;96484.66;5021754;28;20492;-30
2021/01/17 08:06:42;;;;;;;8.02;4.50;;;;;;;27.11;23.15;96481.25;5016272;28;20694;-32
2021/01/17 08:09:07;;;;;;;7.25;4.68;;;;;;;27.06;23.13;96488.59;5024211;28;20068;-33
2021/01/17 08:11:55;;;;;;;7.80;5.25;;;;;;;27.05;23.11;96486.06;5019251;28;20092;-32
2021/01/17 08:14:33;;;;;;;7.85;4.80;;;;;;;27.02;23.14;96502.03;5037950;28;20048;-33
2021/01/17 08:17:17;;;;;;;6.00;4.90;;;;;;;26.97;23.03;96491.81;5024832;28;20056;-33
2021/01/17 08:19:54;;;;;;;5.75;4.40;;;;;;;26.93;23.06;96498.19;5023192;28;20056;-30
2021/01/17 08:22:23;;;;;;;7.00;4.85;;;;;;;26.88;23.25;96494.06;5024247;28;20060;-32
2021/01/17 08:24:52;;;;;;;4.53;3.80;;;;;;;26.86;23.39;96495.09;5021851;28;20040;-34
2021/01/17 08:27:30;;;;;;;6.20;3.80;;;;;;;26.83;23.61;96498.75;5019540;28;20052;-31
2021/01/17 08:30:11;;;;;;;5.50;3.97;;;;;;;26.80;23.45;96498.94;5020062;28;20724;-34
2021/01/17 08:32:40;;;;;;;5.22;4.28;;;;;;;26.78;23.43;96498.19;5021658;28;20119;-35
2021/01/17 08:35:18;;;;;;;6.05;4.15;;;;;;;26.76;23.27;96507.94;5022106;28;20036;-32
2021/01/17 08:37:47;;;;;;;8.23;3.92;;;;;;;26.72;23.27;96506.44;5019787;28;20036;-32
2021/01/17 08:40:16;;;;;;;4.53;3.50;;;;;;;26.71;23.53;96510.88;5017561;28;20045;-30
2021/01/17 08:42:49;;;;;;;3.47;2.55;;;;;;;26.68;24.89;96510.19;5024293;28;22121;-32
2021/01/17 08:45:20;;;;;;;4.95;1.85;;;;;;;26.67;25.48;96514.63;5018663;28;20052;-34
2021/01/17 08:47:50;;;;;;;3.17;1.88;;;;;;;26.68;25.68;96512.84;5024306;28;20120;-32
2021/01/17 08:50:34;;;;;;;1.77;1.60;;;;;;;26.71;25.68;96525.78;5019533;28;20387;-32
2021/01/17 08:53:11;;;;;;;3.03;1.40;;;;;;;26.74;25.80;96525.63;5022657;28;20037;-30
2021/01/17 08:55:40;;;;;;;2.47;1.60;;;;;;;26.76;25.80;96526.34;5022360;28;20037;-34
2021/01/17 08:58:06;;;;;;;1.65;1.40;;;;;;;26.77;25.87;96528.03;5025129;28;20029;-33
2021/01/17 09:00:50;;;;;;;5.13;1.58;;;;;;;26.81;26.05;96537.44;5020157;28;20957;-31
2021/01/17 09:03:29;;;;;;;1.60;1.40;;;;;;;26.84;25.98;96531.13;5019279;28;20036;-33
2021/01/17 09:06:02;;;;;;;2.45;1.42;;;;;;;26.85;25.88;96538.09;5022699;28;20041;-34
2021/01/17 09:08:28;;;;;;;1.70;1.50;;;;;;;26.88;26.09;96546.63;5021854;28;20410;-30
2021/01/17 09:10:54;;;;;;;2.28;1.55;;;;;;;26.88;26.11;96544.00;5021801;28;20049;-34
2021/01/17 09:13:20;;;;;;;1.77;1.40;;;;;;;26.92;26.10;96549.09;5029118;28;20040;-32
2021/01/17 09:15:59;;;;;;;2.92;1.25;;;;;;;26.93;26.18;96551.59;5026984;28;20044;-31
2021/01/17 09:18:25;;;;;;;2.50;1.58;;;;;;;26.95;25.98;96549.75;5029351;28;20025;-32
2021/01/17 09:20:51;;;;;;;4.50;1.58;;;;;;;26.97;26.08;96547.03;5027230;28;20045;-33
2021/01/17 09:23:17;;;;;;;2.55;1.45;;;;;;;26.97;26.11;96547.88;5040294;28;20077;-33
2021/01/17 09:25:43;;;;;;;3.28;1.30;;;;;;;26.98;26.03;96553.97;5032841;28;20039;-33
2021/01/17 09:28:10;;;;;;;3.70;1.42;;;;;;;27.00;25.99;96559.97;5025670;28;20070;-32
2021/01/17 09:30:35;;;;;;;3.17;1.30;;;;;;;27.02;25.96;96559.88;5027124;28;20041;-33
2021/01/17 09:33:01;;;;;;;6.53;1.50;;;;;;;27.00;25.28;96559.97;5021914;28;20043;-32
2021/01/17 09:35:26;;;;;;;3.45;1.48;;;;;;;27.01;26.00;96559.06;5018509;28;20042;-33
2021/01/17 09:37:57;;;;;;;2.63;1.52;;;;;;;27.00;25.93;96558.22;5020530;28;20128;-31
2021/01/17 09:40:22;;;;;;;4.15;1.67;;;;;;;27.03;25.65;96558.97;5020470;28;20116;-32
2021/01/17 09:42:47;;;;;;;2.20;1.70;;;;;;;27.04;25.44;96566.75;5020557;28;20061;-34
2021/01/17 09:45:13;;;;;;;2.38;1.70;;;;;;;27.05;25.22;96565.81;5022640;28;20611;-33
2021/01/17 09:47:39;;;;;;;5.20;2.00;;;;;;;27.02;25.71;96568.63;5026571;28;20502;-33
2021/01/17 09:50:11;;;;;;;5.13;2.53;;;;;;;27.02;25.75;96570.41;5011681;28;20068;-34
2021/01/17 09:52:40;;;;;;;4.65;2.20;;;;;;;27.02;25.58;96576.53;5019405;28;20128;-34
2021/01/17 09:55:09;;;;;;;10.13;2.60;;;;;;;27.04;25.72;96581.69;4998049;28;20042;-34
2021/01/17 09:57:38;;;;;;;8.65;2.33;;;;;;;27.03;25.74;96583.47;5000696;28;20102;-33
2021/01/17 10:00:13;;;;;;;3.50;2.00;;;;;;;27.02;25.71;96584.41;4998530;28;20038;-32
2021/01/17 10:02:39;;;;;;;2.75;2.00;;;;;;;27.04;25.70;96585.16;5002849;28;20061;-32
2021/01/17 10:05:05;;;;;;;5.03;1.98;;;;;;;27.05;25.63;96591.25;5002983;28;21993;-34
2021/01/17 10:07:31;;;;;;;6.90;1.98;;;;;;;27.05;25.67;96591.25;5007331;28;20053;-34
2021/01/17 10:09:56;;;;;;;6.18;1.98;;;;;;;27.05;25.82;96586.88;5008748;28;20138;-31
2021/01/17 10:12:24;;;;;;;9.70;2.25;;;;;;;27.05;25.70;96586.00;5007535;28;20100;-33
2021/01/17 10:14:50;;;;;;;2.33;1.75;;;;;;;27.04;25.80;96579.06;5012653;28;20037;-32
2021/01/17 10:17:16;;;;;;;4.15;2.13;;;;;;;27.03;25.97;96583.47;5035394;28;21067;-34
2021/01/17 10:19:45;;;;;;;4.80;1.83;;;;;;;27.04;25.85;96587.78;5030396;28;20521;-34
2021/01/17 10:22:11;;;;;;;3.25;1.90;;;;;;;27.03;25.88;96588.72;5026277;28;20048;-33
2021/01/17 10:24:38;;;;;;;6.10;1.77;;;;;;;27.03;25.80;96583.47;5026607;28;20083;-33
2021/01/17 10:27:05;;;;;;;3.63;1.90;;;;;;;27.04;25.83;96585.16;5022984;28;20032;-32
2021/01/17 10:29:33;;;;;;;5.63;1.90;;;;;;;27.06;25.89;96585.06;5036974;28;20041;-32
2021/01/17 10:32:00;;;;;;;6.43;2.85;;;;;;;27.05;25.74;96591.25;5035682;28;20074;-29
2021/01/17 10:34:33;;;;;;;4.35;2.20;;;;;;;27.06;25.91;96587.69;5024504;28;20037;-32
2021/01/17 10:37:01;;;;;;;13.20;2.42;;;;;;;27.06;25.95;96583.28;5027737;28;20103;-33
2021/01/17 10:39:27;;;;;;;7.43;2.53;;;;;;;27.06;25.92;96577.16;5042071;28;20042;-32
2021/01/17 10:42:01;;;;;;;8.35;2.58;;;;;;;27.06;25.92;96583.28;5039946;28;20121;-32
2021/01/17 10:44:26;;;;;;;8.77;2.40;;;;;;;27.07;25.88;96589.38;5032185;28;20101;-33
2021/01/17 10:47:07;;;;;;;5.75;2.33;;;;;;;27.07;26.06;96579.72;5025742;28;20034;-31
2021/01/17 10:49:35;;;;;;;3.20;2.10;;;;;;;27.08;26.11;96585.81;5011063;28;20028;-33
2021/01/17 10:52:05;;;;;;;8.32;2.15;;;;;;;27.07;26.12;96590.22;5025882;28;20053;-32
2021/01/17 10:54:31;;;;;;;3.63;1.77;;;;;;;27.07;26.12;96584.13;5029818;28;20072;-33
2021/01/17 10:57:01;;;;;;;6.13;2.35;;;;;;;27.08;26.19;96584.03;5042059;28;20616;-32
2021/01/17 10:59:27;;;;;;;4.53;2.00;;;;;;;27.08;26.04;96584.03;5009256;28;20121;-33
2021/01/17 11:01:52;;;;;;;3.90;1.90;;;;;;;27.08;26.00;96584.03;5024051;28;20779;-33
2021/01/17 11:04:18;;;;;;;4.43;1.92;;;;;;;27.09;25.93;96583.09;5041374;28;20131;-33
2021/01/17 11:06:44;;;;;;;4.00;1.70;;;;;;;27.09;26.06;96588.38;5045275;28;20451;-31
2021/01/17 11:09:11;;;;;;;4.72;2.25;;;;;;;27.11;26.20;96585.63;5032766;28;20246;-32
2021/01/17 11:11:45;;;;;;;4.47;1.83;;;;;;;27.10;25.95;96579.53;5043167;28;20042;-32
2021/01/17 11:14:10;;;;;;;5.07;1.92;;;;;;;27.09;26.00;96583.09;5050818;28;20045;-31
2021/01/17 11:16:36;;;;;;;3.65;1.90;;;;;;;27.10;25.78;96587.41;5028611;28;20102;-33
2021/01/17 11:19:03;;;;;;;3.28;2.00;;;;;;;27.11;26.08;96589.09;5037040;28;20083;-32
2021/01/17 11:21:29;;;;;;;5.25;1.88;;;;;;;27.10;25.98;96584.78;5026502;28;20043;-31
2021/01/17 11:23:54;;;;;;;4.25;1.95;;;;;;;27.10;26.07;96595.31;5027074;28;20033;-30
2021/01/17 11:26:21;;;;;;;3.38;1.98;;;;;;;27.10;25.99;96576.91;5034434;28;20540;-36
2021/01/17 11:28:57;;;;;;;2.92;1.88;;;;;;;27.12;26.12;96585.53;5032789;28;20037;-38
2021/01/17 11:31:23;;;;;;;3.47;1.70;;;;;;;27.10;26.15;96584.78;5024228;28;20050;-35
2021/01/17 11:33:49;;;;;;;4.22;1.80;;;;;;;27.10;26.04;96579.53;5035526;28;20149;-36
2021/01/17 11:36:18;;;;;;;4.40;1.58;;;;;;;27.11;26.11;96589.09;5029727;28;20714;-32
2021/01/17 11:38:45;;;;;;;4.88;1.80;;;;;;;27.11;26.06;96585.63;5039394;28;20037;-34
2021/01/17 11:41:10;;;;;;;4.00;1.60;;;;;;;27.11;26.07;96588.25;5027347;28;20049;-33